Kansas City, Missouri
Traffic Map
Current Weather Conditions
Kansas City, Missouri
Overcast Thunderstorm
Overcast
68°
Feels Like: 68°
Wind Chill: 68° Ceiling: 9500
Heat Index: 68° Visibility: 10mi
Dew Point: 58° Wind: 6mph
Humidity: 70% Direction: 280° (W)
Pressure: 29.7in Gusts: 0mph
Raw Report DataKMKC 260817Z 28005KT 10SM -TSRA SCT070 BKN095 OVC120 20/14 A2970 RMK AO2 LTG DSNT S-W RAB13 TSB17 P0000 T02000144
Traffic Incident Summary
Active as of:
Severity:
Category:
InformationThere was an issue retrieving the traffic information for this location. Please try a different location or try again shortly.
Advertisements
Track Severe Weather on mobile